Time;durP1;ratioP1;P1;durP2;ratioP2;P2;SDS_P1;SDS_P2;PMS_P1;PMS_P2;Temp;Humidity;BMP_temperature;BMP_pressure;BME280_temperature;BME280_humidity;BME280_pressure;Samples;Min_cycle;Max_cycle;Signal;HPM_P1;HPM_P2
2023/01/01 00:01:39;;;;;;;25.60;14.63;;;;;;;16.11;39.86;100642.78;7394348;19;19995;-59
2023/01/01 00:04:07;;;;;;;22.08;9.88;;;;;;;15.89;40.08;100642.63;7394152;19;20002;-60
2023/01/01 00:06:33;;;;;;;17.17;6.70;;;;;;;15.96;40.08;100646.63;7392546;19;20014;-59
2023/01/01 00:11:46;;;;;;;19.52;6.13;;;;;;;16.13;39.76;100643.19;7391891;19;20002;-58
2023/01/01 00:14:11;;;;;;;22.65;10.05;;;;;;;16.04;40.04;100653.75;7393524;19;19997;-58
2023/01/01 00:16:37;;;;;;;15.85;4.78;;;;;;;16.05;40.19;100647.09;7394731;19;20009;-58
2023/01/01 00:19:03;;;;;;;24.85;12.32;;;;;;;15.90;40.40;100646.97;7395347;19;19995;-58
2023/01/01 00:21:29;;;;;;;23.85;10.43;;;;;;;16.12;39.94;100641.63;7392895;19;19994;-58
2023/01/01 00:23:54;;;;;;;18.10;6.32;;;;;;;16.18;39.94;100642.81;7393290;19;20022;-57
2023/01/01 00:26:20;;;;;;;18.73;5.03;;;;;;;16.21;39.83;100639.31;7394423;19;19998;-57
2023/01/01 00:28:46;;;;;;;16.65;4.55;;;;;;;16.03;39.92;100654.91;7395597;19;20289;-58
2023/01/01 00:31:16;;;;;;;13.70;4.22;;;;;;;15.86;40.16;100653.63;7393926;19;20089;-58
2023/01/01 00:33:42;;;;;;;15.00;4.45;;;;;;;16.02;39.94;100654.13;7393588;19;20069;-58
2023/01/01 00:36:10;;;;;;;12.93;4.35;;;;;;;16.20;39.48;100658.97;7394536;19;20006;-58
2023/01/01 00:38:37;;;;;;;13.85;4.25;;;;;;;16.05;39.58;100658.09;7393122;19;19995;-57
2023/01/01 00:41:03;;;;;;;17.35;6.35;;;;;;;16.06;39.89;100663.19;7392681;19;20338;-57
2023/01/01 00:43:29;;;;;;;13.27;4.22;;;;;;;16.05;39.58;100663.59;7392495;19;20022;-57
2023/01/01 00:45:55;;;;;;;11.70;3.55;;;;;;;16.05;39.44;100664.38;7393778;19;20003;-57
2023/01/01 00:48:28;;;;;;;12.32;4.20;;;;;;;16.11;38.82;100667.56;7393346;19;20002;-58
2023/01/01 00:50:53;;;;;;;13.85;3.80;;;;;;;16.12;39.12;100674.66;7393533;19;20022;-58
2023/01/01 00:53:20;;;;;;;13.75;3.83;;;;;;;15.94;39.59;100669.00;7393195;19;20489;-57
2023/01/01 00:55:47;;;;;;;12.45;4.45;;;;;;;16.18;38.97;100666.81;7392235;19;20010;-57
2023/01/01 00:58:14;;;;;;;15.82;4.55;;;;;;;16.09;39.37;100669.91;7392760;19;20006;-58
2023/01/01 01:00:41;;;;;;;12.60;3.65;;;;;;;16.12;39.37;100662.84;7393065;19;20010;-58
2023/01/01 01:03:07;;;;;;;10.57;3.58;;;;;;;16.18;39.11;100684.13;7391200;19;20027;-58
2023/01/01 01:05:35;;;;;;;10.48;3.80;;;;;;;16.07;38.97;100681.31;7390899;19;20003;-57
2023/01/01 01:08:01;;;;;;;11.93;3.72;;;;;;;16.13;38.71;100683.69;7393184;19;20006;-57
2023/01/01 01:10:27;;;;;;;12.70;4.30;;;;;;;16.34;38.61;100683.06;7391400;19;19995;-57
2023/01/01 01:12:53;;;;;;;13.55;4.03;;;;;;;16.37;38.56;100680.34;7392035;19;19998;-58
2023/01/01 01:15:19;;;;;;;14.10;4.35;;;;;;;16.13;39.01;100687.22;7390959;19;20002;-57
2023/01/01 01:17:45;;;;;;;10.40;3.78;;;;;;;15.99;39.38;100687.16;7392593;19;20455;-58
2023/01/01 01:20:11;;;;;;;12.98;4.00;;;;;;;16.03;39.19;100693.47;7391242;19;19995;-58
2023/01/01 01:22:38;;;;;;;15.38;4.30;;;;;;;16.15;38.81;100698.69;7392150;19;20001;-58
2023/01/01 01:25:05;;;;;;;10.50;3.78;;;;;;;16.23;38.76;100694.81;7390984;19;20022;-58
2023/01/01 01:27:31;;;;;;;15.75;4.85;;;;;;;16.36;38.91;100683.47;7395700;19;20570;-58
2023/01/01 01:29:57;;;;;;;10.88;4.03;;;;;;;16.16;38.92;100680.97;7392452;19;20006;-58
2023/01/01 01:32:23;;;;;;;13.45;4.40;;;;;;;16.25;38.79;100681.44;7390285;19;20075;-58
2023/01/01 01:34:49;;;;;;;11.18;3.80;;;;;;;16.04;39.45;100695.81;7391390;19;20065;-58
2023/01/01 01:37:15;;;;;;;14.00;3.85;;;;;;;16.25;38.99;100680.63;7391324;19;20005;-58
2023/01/01 01:39:41;;;;;;;12.73;4.10;;;;;;;15.95;39.51;100681.63;7391841;19;19999;-58
2023/01/01 01:42:07;;;;;;;12.30;4.57;;;;;;;16.19;39.13;100691.22;7389282;19;20487;-58
2023/01/01 01:44:45;;;;;;;12.40;4.53;;;;;;;16.32;38.51;100699.16;7389843;19;20002;-57
2023/01/01 01:47:49;;;;;;;12.15;3.97;;;;;;;16.21;38.57;100694.38;7391147;19;20002;-59
2023/01/01 01:50:38;;;;;;;10.73;3.67;;;;;;;16.11;38.50;100708.84;7388743;19;20019;-58
2023/01/01 01:53:17;;;;;;;11.80;3.90;;;;;;;16.01;38.87;100696.59;7390271;19;20006;-58
2023/01/01 01:55:47;;;;;;;10.07;4.18;;;;;;;16.14;39.27;100710.06;7388245;19;20002;-58
2023/01/01 01:58:15;;;;;;;15.23;5.10;;;;;;;16.28;38.74;100727.50;7390570;19;20004;-59
2023/01/01 02:00:40;;;;;;;12.40;4.32;;;;;;;16.15;39.07;100723.47;7391001;19;20002;-57
2023/01/01 02:03:09;;;;;;;12.50;4.47;;;;;;;16.20;39.24;100725.03;7388453;19;20005;-57
2023/01/01 02:05:35;;;;;;;12.27;4.05;;;;;;;16.24;39.00;100725.88;7388737;19;21686;-58
2023/01/01 02:08:03;;;;;;;12.98;4.45;;;;;;;16.37;39.22;100734.63;7390875;19;19998;-57
2023/01/01 02:10:29;;;;;;;11.23;4.35;;;;;;;16.21;39.45;100738.44;7390499;19;20317;-59
2023/01/01 02:12:55;;;;;;;15.27;4.75;;;;;;;16.19;39.51;100734.50;7390718;19;19994;-59
2023/01/01 02:15:29;;;;;;;11.57;4.82;;;;;;;16.18;39.41;100739.19;7388929;19;20005;-58
2023/01/01 02:18:12;;;;;;;13.05;5.03;;;;;;;15.96;40.03;100740.97;7388742;19;20009;-58
2023/01/01 02:21:02;;;;;;;14.15;5.00;;;;;;;16.02;40.24;100739.47;7389460;19;19991;-59
2023/01/01 02:23:40;;;;;;;11.40;5.22;;;;;;;16.08;40.61;100731.63;7391116;19;20055;-59
2023/01/01 02:26:37;;;;;;;13.63;5.18;;;;;;;16.20;39.71;100733.31;7388362;19;20463;-58
2023/01/01 02:29:24;;;;;;;14.52;5.03;;;;;;;16.04;40.23;100745.38;7390750;19;20003;-59
2023/01/01 02:32:02;;;;;;;15.40;5.20;;;;;;;15.93;40.42;100727.97;7391164;19;20032;-58
2023/01/01 02:34:34;;;;;;;15.25;5.75;;;;;;;15.98;40.73;100746.91;7387594;19;19998;-58
2023/01/01 02:37:02;;;;;;;12.70;5.03;;;;;;;16.18;40.40;100730.94;7390446;19;20065;-60
2023/01/01 02:39:31;;;;;;;11.35;4.75;;;;;;;16.21;40.34;100751.41;7388705;19;19999;-59
2023/01/01 02:41:59;;;;;;;13.70;4.88;;;;;;;16.08;40.63;100757.22;7387932;19;20471;-59
2023/01/01 02:44:29;;;;;;;13.57;5.30;;;;;;;15.97;41.08;100755.56;7388523;19;20391;-59
2023/01/01 02:46:55;;;;;;;20.05;5.30;;;;;;;16.01;41.03;100762.66;7390457;19;20343;-59
2023/01/01 02:49:20;;;;;;;10.73;4.93;;;;;;;15.91;41.26;100747.66;7390002;19;19999;-59
2023/01/01 02:52:22;;;;;;;13.60;5.50;;;;;;;16.12;40.94;100743.50;7390534;19;20084;-59
2023/01/01 02:55:06;;;;;;;13.52;4.68;;;;;;;16.04;41.05;100739.09;7386065;19;20015;-58
2023/01/01 02:57:45;;;;;;;14.55;4.45;;;;;;;15.96;41.56;100753.97;7388807;19;20020;-57
2023/01/01 03:00:28;;;;;;;12.57;4.35;;;;;;;16.15;41.29;100753.75;7391140;19;19995;-57
2023/01/01 03:03:18;;;;;;;13.68;4.53;;;;;;;16.17;40.99;100756.13;7398556;19;20030;-58
2023/01/01 03:08:48;;;;;;;12.30;4.30;;;;;;;15.89;41.82;100749.97;7400976;19;19999;-57
2023/01/01 03:11:17;;;;;;;10.63;4.30;;;;;;;15.85;42.12;100775.91;7401000;19;19991;-58
2023/01/01 03:13:55;;;;;;;11.38;4.40;;;;;;;15.82;42.47;100798.66;7399175;19;20030;-58
2023/01/01 03:16:33;;;;;;;13.75;4.65;;;;;;;15.71;42.62;100771.03;7401614;19;20042;-58
2023/01/01 03:19:27;;;;;;;10.52;4.45;;;;;;;15.89;42.04;100769.22;7400059;19;20018;-58
2023/01/01 03:22:00;;;;;;;;;;;;;;;15.30;43.28;100760.72;7398019;19;20003;-57
2023/01/01 03:24:34;;;;;;;13.70;4.53;;;;;;;15.62;42.84;100767.75;7397411;19;19911;-58
2023/01/01 03:27:10;;;;;;;13.02;4.60;;;;;;;15.77;42.52;100769.50;7398955;19;19999;-57
2023/01/01 03:29:40;;;;;;;15.10;4.72;;;;;;;15.91;41.99;100764.16;7401013;19;19999;-57
2023/01/01 03:32:13;;;;;;;13.25;4.60;;;;;;;15.92;42.21;100765.72;7397715;19;19998;-57
2023/01/01 03:34:46;;;;;;;11.55;4.60;;;;;;;15.89;41.86;100771.19;7396309;19;20062;-58
2023/01/01 03:37:16;;;;;;;11.07;4.70;;;;;;;16.07;41.56;100758.38;7400218;19;20017;-58
2023/01/01 03:39:49;;;;;;;12.80;4.65;;;;;;;16.09;41.59;100774.53;7399669;19;20086;-58
2023/01/01 03:42:37;;;;;;;13.82;4.88;;;;;;;15.83;41.23;100772.69;7397492;19;19998;-58
2023/01/01 03:45:32;;;;;;;12.40;4.32;;;;;;;16.00;41.02;100787.81;7397493;19;20466;-58
2023/01/01 03:47:59;;;;;;;10.27;4.32;;;;;;;16.05;41.81;100784.72;7398771;19;19999;-58
2023/01/01 03:50:41;;;;;;;15.07;4.80;;;;;;;16.07;41.10;100793.41;7399469;19;20003;-58
2023/01/01 03:53:28;;;;;;;13.50;4.60;;;;;;;16.04;41.10;100799.66;7396123;19;20462;-58
2023/01/01 03:56:12;;;;;;;11.50;4.40;;;;;;;16.06;41.07;100789.03;7399743;19;20027;-58
2023/01/01 03:58:51;;;;;;;10.93;4.32;;;;;;;15.87;41.25;100790.06;7397684;19;20066;-58
2023/01/01 04:01:26;;;;;;;13.73;4.38;;;;;;;16.12;41.08;100790.28;7396176;19;19998;-57
2023/01/01 04:03:53;;;;;;;13.82;4.35;;;;;;;15.89;41.18;100798.72;7396798;19;20487;-58
2023/01/01 04:06:19;;;;;;;11.30;3.90;;;;;;;15.60;41.79;100789.34;7399499;19;20007;-58
2023/01/01 04:08:48;;;;;;;10.45;3.17;;;;;;;15.75;41.19;100790.31;7397026;19;20494;-58
2023/01/01 04:14:03;;;;;;;8.98;3.42;;;;;;;15.96;40.90;100775.97;7394960;19;20471;-58
2023/01/01 04:16:29;;;;;;;10.35;3.17;;;;;;;15.84;40.97;100785.31;7396993;19;19999;-57
2023/01/01 04:18:55;;;;;;;11.55;3.38;;;;;;;15.87;40.83;100776.31;7397023;19;19995;-57
2023/01/01 04:21:21;;;;;;;11.90;3.72;;;;;;;15.67;40.68;100770.19;7395578;19;20002;-58
2023/01/01 04:23:47;;;;;;;10.75;3.38;;;;;;;16.05;40.36;100780.00;7396464;19;20036;-57
2023/01/01 04:26:14;;;;;;;7.65;3.35;;;;;;;16.22;39.87;100783.31;7398522;19;19991;-58
2023/01/01 04:28:41;;;;;;;8.98;3.15;;;;;;;16.26;39.85;100789.63;7397095;19;19998;-58
2023/01/01 04:31:08;;;;;;;10.38;3.17;;;;;;;16.28;39.83;100782.56;7398640;19;20017;-58
2023/01/01 04:33:34;;;;;;;12.15;3.38;;;;;;;16.15;39.97;100788.72;7395248;19;20431;-58
2023/01/01 04:36:05;;;;;;;10.20;3.20;;;;;;;16.24;39.46;100781.72;7396540;19;19998;-58
2023/01/01 04:38:35;;;;;;;11.23;3.65;;;;;;;16.24;39.18;100780.94;7399034;19;19994;-57
2023/01/01 04:41:02;;;;;;;10.85;3.20;;;;;;;16.05;39.72;100776.47;7394910;19;19990;-58
2023/01/01 04:43:32;;;;;;;13.70;3.47;;;;;;;15.95;39.47;100779.91;7396514;19;19999;-58
2023/01/01 04:46:05;;;;;;;13.82;3.42;;;;;;;16.05;38.72;100790.25;7396074;19;19994;-58
2023/01/01 04:48:33;;;;;;;11.10;3.20;;;;;;;16.03;39.04;100776.03;7398489;19;20033;-58
2023/01/01 04:51:04;;;;;;;6.95;2.60;;;;;;;15.64;39.12;100766.22;7397974;19;20003;-58
2023/01/01 04:53:34;;;;;;;11.07;2.92;;;;;;;15.62;39.38;100784.28;7394065;19;20005;-59
2023/01/01 04:56:13;;;;;;;9.20;2.70;;;;;;;16.09;38.23;100774.53;7398253;19;20014;-58
2023/01/01 04:58:41;;;;;;;10.13;2.97;;;;;;;16.11;38.36;100780.44;7398472;19;20006;-58
2023/01/01 05:01:13;;;;;;;8.90;2.80;;;;;;;15.96;39.05;100775.97;7395919;19;19999;-58
2023/01/01 05:03:39;;;;;;;8.73;2.95;;;;;;;15.83;38.67;100773.53;7396725;19;20002;-57
2023/01/01 05:06:06;;;;;;;9.80;2.97;;;;;;;15.90;38.81;100784.59;7395081;19;20409;-58
2023/01/01 05:08:33;;;;;;;7.65;2.22;;;;;;;15.77;38.78;100791.53;7397750;19;20003;-57
2023/01/01 05:11:11;;;;;;;10.27;2.88;;;;;;;16.04;38.04;100785.88;7397898;19;20461;-57
2023/01/01 05:13:39;;;;;;;6.88;2.38;;;;;;;15.84;38.50;100786.09;7395537;19;20347;-58
2023/01/01 05:16:07;;;;;;;12.02;2.58;;;;;;;16.15;38.04;100802.50;7396604;19;19999;-58
2023/01/01 05:18:35;;;;;;;6.40;2.55;;;;;;;16.12;38.13;100801.31;7395627;19;20002;-59
2023/01/01 05:21:06;;;;;;;9.90;2.38;;;;;;;16.01;37.86;100811.41;7395268;19;19990;-58
2023/01/01 05:23:32;;;;;;;9.38;2.53;;;;;;;16.01;38.03;100827.94;7392588;19;20007;-58
2023/01/01 05:25:58;;;;;;;9.75;2.60;;;;;;;15.92;38.03;100817.25;7395000;19;19995;-58
2023/01/01 05:28:24;;;;;;;8.95;2.53;;;;;;;16.05;38.38;100828.78;7394252;19;19999;-58
2023/01/01 05:30:51;;;;;;;8.40;2.30;;;;;;;16.10;37.89;100820.19;7396258;19;19998;-58
2023/01/01 05:33:21;;;;;;;8.82;2.30;;;;;;;16.01;37.58;100822.44;7393902;19;20018;-59
2023/01/01 05:35:53;;;;;;;7.53;2.42;;;;;;;16.19;37.60;100834.41;7396996;19;19998;-59
2023/01/01 05:38:19;;;;;;;9.65;2.50;;;;;;;16.10;37.93;100834.72;7390673;19;20002;-58
2023/01/01 05:40:45;;;;;;;8.52;2.50;;;;;;;15.97;37.73;100838.13;7392106;19;20002;-58
2023/01/01 05:43:11;;;;;;;10.60;2.72;;;;;;;15.95;37.80;100832.19;7391114;19;20342;-58
2023/01/01 05:45:40;;;;;;;12.90;2.58;;;;;;;15.92;37.82;100834.53;7389643;19;20472;-58
2023/01/01 05:48:06;;;;;;;7.60;2.22;;;;;;;15.97;37.68;100838.91;7391752;19;20002;-57
2023/01/01 05:50:31;;;;;;;8.40;2.30;;;;;;;16.15;37.55;100838.28;7391970;19;20019;-58
2023/01/01 05:53:00;;;;;;;10.65;2.38;;;;;;;16.07;37.56;100845.69;7391388;19;20010;-58
2023/01/01 05:55:27;;;;;;;5.60;2.28;;;;;;;16.19;37.39;100850.94;7390321;19;20070;-58
2023/01/01 05:57:53;;;;;;;9.18;2.47;;;;;;;16.05;37.23;100854.34;7390337;19;20014;-58
2023/01/01 06:00:19;;;;;;;8.05;2.30;;;;;;;15.99;37.51;100852.31;7391446;19;19999;-58
2023/01/01 06:02:45;;;;;;;11.10;2.53;;;;;;;15.96;37.55;100861.31;7389262;19;19991;-58
2023/01/01 06:05:10;;;;;;;11.15;2.50;;;;;;;15.78;37.73;100861.91;7390772;19;20021;-58
2023/01/01 06:07:37;;;;;;;10.35;2.47;;;;;;;16.13;37.03;100868.16;7390348;19;19998;-58
2023/01/01 06:10:03;;;;;;;7.95;2.13;;;;;;;16.09;37.32;100876.41;7390244;19;19995;-58
2023/01/01 06:12:29;;;;;;;12.23;2.65;;;;;;;16.14;37.24;100886.28;7389341;19;20002;-58
2023/01/01 06:14:55;;;;;;;6.32;2.00;;;;;;;15.82;37.96;100904.03;7388353;19;19999;-58
2023/01/01 06:17:20;;;;;;;13.70;2.15;;;;;;;15.87;37.88;100884.41;7389075;19;19993;-58
2023/01/01 06:19:47;;;;;;;8.75;2.47;;;;;;;15.82;37.92;100906.78;7391696;19;20461;-58
2023/01/01 06:22:16;;;;;;;6.93;2.42;;;;;;;15.89;37.88;100882.06;7387957;19;20483;-58
2023/01/01 06:24:42;;;;;;;9.43;2.10;;;;;;;15.84;37.52;100882.41;7387151;19;20002;-58
2023/01/01 06:27:08;;;;;;;6.68;2.20;;;;;;;15.94;37.46;100866.41;7390706;19;20005;-58
2023/01/01 06:29:34;;;;;;;10.75;1.90;;;;;;;15.91;37.53;100882.50;7390983;19;20014;-58
2023/01/01 06:31:59;;;;;;;8.18;1.95;;;;;;;15.84;37.71;100887.91;7391136;19;20079;-58
2023/01/01 06:34:26;;;;;;;10.05;2.35;;;;;;;15.86;37.80;100874.56;7388941;19;20462;-58
2023/01/01 06:36:52;;;;;;;6.78;1.77;;;;;;;15.95;37.61;100887.25;7394810;19;20004;-58
2023/01/01 06:39:18;;;;;;;3.92;1.60;;;;;;;15.69;37.45;100897.19;7397060;19;20062;-58
2023/01/01 06:41:43;;;;;;;6.60;2.00;;;;;;;15.53;37.94;100886.31;7396878;19;19994;-57
2023/01/01 06:44:09;;;;;;;8.10;1.63;;;;;;;15.96;37.19;100889.63;7396516;19;20009;-58
2023/01/01 06:46:38;;;;;;;8.55;1.60;;;;;;;16.03;37.22;100900.72;7397850;19;20016;-58
2023/01/01 06:49:08;;;;;;;4.53;1.33;;;;;;;15.96;36.96;100891.59;7396631;19;19998;-58
2023/01/01 06:51:39;;;;;;;6.45;1.80;;;;;;;16.02;36.89;100907.41;7397900;19;20013;-58
2023/01/01 06:54:07;;;;;;;7.82;1.70;;;;;;;15.94;37.38;100911.22;7395669;19;20019;-59
2023/01/01 06:56:33;;;;;;;6.78;1.60;;;;;;;15.89;37.36;100903.31;7395948;19;20078;-58
2023/01/01 06:59:02;;;;;;;4.82;1.15;;;;;;;16.01;37.46;100899.50;7395607;19;20454;-58
2023/01/01 07:01:29;;;;;;;8.10;1.63;;;;;;;15.83;37.30;100916.63;7395722;19;20022;-58
2023/01/01 07:04:01;;;;;;;7.47;1.80;;;;;;;15.81;37.78;100927.19;7395841;19;20006;-58
2023/01/01 07:06:29;;;;;;;6.40;1.48;;;;;;;15.79;37.62;100929.53;7397421;19;20470;-58
2023/01/01 07:08:58;;;;;;;7.45;2.05;;;;;;;15.50;37.97;100937.38;7396715;19;20009;-58
2023/01/01 07:11:25;;;;;;;6.47;1.90;;;;;;;15.73;38.08;100956.59;7396885;19;20534;-58
2023/01/01 07:13:51;;;;;;;5.45;1.33;;;;;;;15.67;37.94;100954.53;7393393;19;20472;-58
2023/01/01 07:16:18;;;;;;;6.38;1.25;;;;;;;15.73;37.50;100977.78;7397670;19;20009;-58
2023/01/01 07:18:44;;;;;;;6.20;1.42;;;;;;;15.96;37.31;100982.44;7395502;19;20006;-58
2023/01/01 07:21:31;;;;;;;7.88;1.40;;;;;;;15.63;37.07;100975.69;7394028;19;20466;-58
2023/01/01 07:24:00;;;;;;;7.15;1.33;;;;;;;15.64;37.15;100969.81;7395702;19;20002;-59
2023/01/01 07:26:28;;;;;;;8.20;1.30;;;;;;;15.65;37.34;100970.63;7396774;19;20006;-58
2023/01/01 07:28:54;;;;;;;5.32;1.38;;;;;;;15.69;37.30;100982.47;7396386;19;20051;-58
2023/01/01 07:31:20;;;;;;;7.95;1.60;;;;;;;15.50;37.59;100973.16;7395100;19;20003;-58
2023/01/01 07:33:46;;;;;;;6.63;1.65;;;;;;;15.85;37.17;100985.06;7394694;19;20038;-58
2023/01/01 07:36:13;;;;;;;5.57;1.20;;;;;;;15.84;36.74;101006.25;7394546;19;20019;-58
2023/01/01 07:38:39;;;;;;;5.95;1.48;;;;;;;15.97;36.95;101019.81;7396390;19;20361;-59
2023/01/01 07:41:05;;;;;;;3.60;1.33;;;;;;;15.92;36.82;101013.44;7393166;19;20482;-59
2023/01/01 07:43:34;;;;;;;5.90;1.50;;;;;;;15.82;37.27;101030.63;7392987;19;20006;-59
2023/01/01 07:46:00;;;;;;;4.00;1.40;;;;;;;15.60;37.00;101021.22;7394687;19;20006;-59
2023/01/01 07:48:27;;;;;;;7.78;1.45;;;;;;;15.80;36.73;101040.41;7392222;19;20063;-59
2023/01/01 07:50:53;;;;;;;6.53;1.42;;;;;;;15.75;36.60;101037.97;7394425;19;20014;-59
2023/01/01 07:53:19;;;;;;;4.90;1.42;;;;;;;15.64;36.84;101049.63;7393281;19;20676;-59
2023/01/01 07:55:45;;;;;;;4.50;1.48;;;;;;;15.94;36.46;101061.84;7393837;19;20466;-59
2023/01/01 07:58:12;;;;;;;4.35;1.45;;;;;;;15.91;36.35;101066.13;7394196;19;20379;-59
2023/01/01 08:00:38;;;;;;;6.85;1.50;;;;;;;15.87;36.40;101059.78;7395298;19;20423;-59
2023/01/01 08:03:08;;;;;;;8.02;1.30;;;;;;;15.85;36.37;101054.66;7394358;19;20006;-59
2023/01/01 08:05:36;;;;;;;7.03;1.52;;;;;;;15.78;37.00;101067.50;7395620;19;20397;-59
2023/01/01 08:08:02;;;;;;;4.80;1.25;;;;;;;15.77;37.12;101058.47;7395583;19;20003;-59
2023/01/01 08:10:28;;;;;;;3.90;1.40;;;;;;;15.76;37.37;101067.88;7393515;19;20011;-59
2023/01/01 08:13:01;;;;;;;10.45;1.70;;;;;;;15.81;37.48;101072.25;7394597;19;20462;-59
2023/01/01 08:15:27;;;;;;;6.60;1.23;;;;;;;15.50;37.96;101085.94;7395422;19;20338;-59
2023/01/01 08:17:57;;;;;;;6.45;1.30;;;;;;;15.67;37.93;101081.09;7393472;19;20110;-59
2023/01/01 08:20:27;;;;;;;7.57;1.60;;;;;;;15.84;37.84;101083.31;7393054;19;20481;-59
2023/01/01 08:22:55;;;;;;;5.55;1.40;;;;;;;15.60;37.48;101100.22;7392276;19;20079;-59
2023/01/01 08:25:21;;;;;;;5.35;1.20;;;;;;;15.67;37.20;101119.63;7392822;19;20364;-59
2023/01/01 08:27:47;;;;;;;6.13;1.50;;;;;;;15.47;37.79;101127.91;7394402;19;19995;-59
2023/01/01 08:30:15;;;;;;;6.10;1.30;;;;;;;15.79;37.34;101119.41;7394819;19;20050;-59
2023/01/01 08:32:41;;;;;;;4.60;1.20;;;;;;;15.57;37.60;101111.97;7393650;19;20771;-59
2023/01/01 08:35:08;;;;;;;5.32;1.80;;;;;;;15.62;37.48;101114.41;7391696;19;20020;-59
2023/01/01 08:37:36;;;;;;;6.93;1.73;;;;;;;15.72;37.26;101125.59;7394347;19;20005;-59
2023/01/01 08:40:02;;;;;;;6.15;1.40;;;;;;;15.57;37.72;101140.28;7394168;19;19999;-59
2023/01/01 08:42:28;;;;;;;8.07;1.60;;;;;;;15.91;37.20;101127.50;7389825;19;20400;-59
2023/01/01 08:44:54;;;;;;;13.00;1.75;;;;;;;16.03;37.16;101137.50;7390908;19;19994;-59
2023/01/01 08:47:30;;;;;;;9.82;1.90;;;;;;;15.78;37.82;101150.88;7393277;19;20437;-59
2023/01/01 08:49:57;;;;;;;5.15;1.23;;;;;;;15.83;38.00;101150.56;7394646;19;20015;-59
2023/01/01 08:52:23;;;;;;;7.38;1.50;;;;;;;15.72;38.32;101146.84;7391787;19;20008;-59
2023/01/01 08:54:49;;;;;;;5.40;1.65;;;;;;;15.72;38.25;101138.56;7387009;19;20014;-60
2023/01/01 08:57:15;;;;;;;5.80;1.30;;;;;;;15.44;38.55;101160.88;7393548;19;20401;-60
2023/01/01 08:59:40;;;;;;;5.05;1.40;;;;;;;15.69;37.57;101155.81;7392610;19;19999;-60
2023/01/01 09:02:06;;;;;;;8.88;1.98;;;;;;;15.83;37.46;101152.50;7391378;19;20002;-60
2023/01/01 09:04:41;;;;;;;5.90;1.60;;;;;;;15.65;36.51;101169.53;7390594;19;20022;-61
2023/01/01 09:07:07;;;;;;;10.43;1.67;;;;;;;15.77;36.38;101160.28;7393781;19;20018;-60
2023/01/01 09:09:32;;;;;;;8.38;1.38;;;;;;;15.92;36.14;101173.09;7393010;19;20006;-60
2023/01/01 09:12:04;;;;;;;4.18;1.30;;;;;;;16.03;35.40;101186.22;7393320;19;20498;-60
2023/01/01 09:14:32;;;;;;;3.17;1.08;;;;;;;16.00;35.51;101182.28;7390953;19;20002;-61
2023/01/01 09:16:58;;;;;;;6.90;1.50;;;;;;;15.98;35.32;101186.53;7393587;19;20011;-61
2023/01/01 09:19:24;;;;;;;4.65;1.20;;;;;;;15.98;35.30;101200.31;7392577;19;20006;-59
2023/01/01 09:21:49;;;;;;;4.03;1.23;;;;;;;15.84;35.77;101204.44;7390358;19;20003;-59
2023/01/01 09:24:15;;;;;;;3.72;1.25;;;;;;;15.71;35.89;101222.28;7391079;19;20011;-61
2023/01/01 09:26:41;;;;;;;3.97;1.38;;;;;;;15.86;35.40;101234.34;7392671;19;20010;-61
2023/01/01 09:29:07;;;;;;;5.93;1.10;;;;;;;16.00;35.43;101247.53;7392710;19;20018;-60
2023/01/01 09:31:32;;;;;;;5.75;1.73;;;;;;;15.88;35.41;101226.50;7392341;19;20078;-60
2023/01/01 09:33:58;;;;;;;3.75;1.13;;;;;;;15.71;34.87;101227.78;7389286;19;20005;-61
2023/01/01 09:36:30;;;;;;;5.35;1.10;;;;;;;15.76;34.63;101241.25;7392362;19;20082;-58
2023/01/01 09:38:57;;;;;;;5.32;1.60;;;;;;;15.86;34.25;101250.84;7391912;19;20002;-59
2023/01/01 09:41:42;;;;;;;2.50;0.68;;;;;;;15.85;33.21;101239.06;7391837;19;20002;-60
2023/01/01 09:44:16;;;;;;;4.50;0.73;;;;;;;15.82;32.91;101264.56;7390548;19;20069;-60
2023/01/01 09:46:42;;;;;;;3.92;1.10;;;;;;;15.45;33.90;101269.75;7392312;19;19999;-61
2023/01/01 09:49:20;;;;;;;3.30;0.70;;;;;;;15.80;32.73;101269.63;7392103;19;20337;-60
2023/01/01 09:51:53;;;;;;;2.20;0.70;;;;;;;15.82;33.16;101272.81;7391738;19;20006;-59
2023/01/01 09:54:39;;;;;;;2.75;0.98;;;;;;;15.45;32.53;101287.03;7389214;19;20415;-60
2023/01/01 09:57:09;;;;;;;3.70;0.73;;;;;;;15.73;33.26;101275.81;7391764;19;20025;-60
2023/01/01 09:59:35;;;;;;;2.05;0.60;;;;;;;15.93;32.74;101275.75;7390150;19;20010;-61
2023/01/01 10:02:13;;;;;;;4.22;0.80;;;;;;;16.08;32.19;101279.53;7389592;19;20328;-60
2023/01/01 10:04:51;;;;;;;3.33;0.52;;;;;;;16.05;32.48;101283.03;7389808;19;20082;-60
2023/01/01 10:07:31;;;;;;;3.20;0.73;;;;;;;15.97;31.81;101284.09;7391863;19;19999;-59
2023/01/01 10:10:03;;;;;;;5.20;0.90;;;;;;;16.10;32.43;101296.50;7390537;19;20386;-60
2023/01/01 10:12:34;;;;;;;4.00;0.88;;;;;;;15.79;32.62;101281.78;7388191;19;20466;-61
2023/01/01 10:15:09;;;;;;;7.03;0.77;;;;;;;15.82;31.85;101274.78;7389565;19;20443;-60
2023/01/01 10:17:41;;;;;;;4.63;1.08;;;;;;;15.73;32.63;101286.81;7390779;19;20011;-60
2023/01/01 10:20:18;;;;;;;4.63;0.68;;;;;;;15.67;32.55;101287.47;7391089;19;20074;-60
2023/01/01 10:22:48;;;;;;;3.33;0.70;;;;;;;15.73;32.93;101289.56;7390367;19;20006;-61
2023/01/01 10:25:26;;;;;;;5.03;0.90;;;;;;;15.53;32.84;101275.00;7389325;19;20018;-61
2023/01/01 10:27:58;;;;;;;4.18;0.80;;;;;;;15.67;33.02;101281.97;7390888;19;20007;-61
2023/01/01 10:30:24;;;;;;;3.20;0.65;;;;;;;15.75;32.82;101283.69;7390747;19;19999;-59
2023/01/01 10:32:52;;;;;;;2.80;0.57;;;;;;;15.54;33.42;101287.59;7390176;19;20003;-59
2023/01/01 10:35:21;;;;;;;4.13;0.57;;;;;;;15.60;33.15;101290.84;7389189;19;20483;-59
2023/01/01 10:37:48;;;;;;;3.33;0.70;;;;;;;15.66;32.95;101296.88;7390230;19;20839;-60
2023/01/01 10:40:14;;;;;;;4.13;0.70;;;;;;;15.60;33.25;101306.56;7390338;19;20022;-59
2023/01/01 10:42:40;;;;;;;2.83;0.47;;;;;;;15.53;33.62;101305.28;7389084;19;19999;-60
2023/01/01 10:45:13;;;;;;;2.67;0.70;;;;;;;15.53;33.50;101302.53;7388218;19;20023;-60
2023/01/01 10:47:59;;;;;;;;;;;;;;;15.28;33.23;101309.47;7391956;19;20002;-59
2023/01/01 10:50:42;;;;;;;2.97;0.77;;;;;;;15.31;33.85;101308.75;7389616;19;19919;-59
2023/01/01 10:53:21;;;;;;;5.30;1.02;;;;;;;15.38;33.72;101295.16;7390152;19;20033;-59
2023/01/01 10:55:58;;;;;;;1.77;0.60;;;;;;;15.60;33.50;101298.28;7388181;19;20003;-59
2023/01/01 10:58:27;;;;;;;4.75;0.50;;;;;;;15.54;34.12;101306.84;7388976;19;20354;-59
2023/01/01 11:00:57;;;;;;;4.05;1.10;;;;;;;15.65;33.78;101298.06;7387111;19;20002;-59
2023/01/01 11:03:23;;;;;;;3.00;0.68;;;;;;;15.41;34.38;101319.16;7389551;19;19999;-60
2023/01/01 11:06:21;;;;;;;3.92;0.60;;;;;;;15.26;33.96;101312.56;7389401;19;19995;-59
2023/01/01 11:08:56;;;;;;;1.48;0.80;;;;;;;15.20;34.29;101327.78;7389089;19;19998;-59
2023/01/01 11:11:31;;;;;;;4.35;1.00;;;;;;;14.85;34.98;101341.53;7390106;19;20006;-59
2023/01/01 11:14:04;;;;;;;4.57;0.90;;;;;;;14.96;34.94;101339.81;7388410;19;20003;-60
2023/01/01 11:16:31;;;;;;;2.92;0.70;;;;;;;15.15;34.69;101339.06;7389260;19;19998;-59
2023/01/01 11:19:05;;;;;;;4.95;0.90;;;;;;;15.18;34.95;101333.63;7389593;19;20015;-60
2023/01/01 11:21:32;;;;;;;4.75;1.10;;;;;;;15.16;34.78;101338.72;7389249;19;20011;-61
2023/01/01 11:24:20;;;;;;;5.75;1.20;;;;;;;15.28;34.55;101368.03;7395656;19;20002;-59
2023/01/01 11:26:47;;;;;;;5.53;1.00;;;;;;;14.91;35.44;101362.06;7396051;19;20099;-60
2023/01/01 11:29:18;;;;;;;3.90;1.23;;;;;;;15.12;34.97;101354.31;7396902;19;19995;-58
2023/01/01 11:31:46;;;;;;;7.75;1.48;;;;;;;15.05;35.34;101358.88;7396310;19;20003;-59
2023/01/01 11:34:36;;;;;;;8.45;1.25;;;;;;;15.09;35.08;101360.53;7395217;19;20127;-59
2023/01/01 11:37:35;;;;;;;6.28;1.40;;;;;;;15.16;35.43;101359.88;7395488;19;20066;-60
2023/01/01 11:40:03;;;;;;;7.75;1.40;;;;;;;15.06;35.62;101364.00;7396203;19;20006;-59
2023/01/01 11:42:34;;;;;;;7.85;1.13;;;;;;;14.99;35.72;101361.09;7391038;19;20010;-59
2023/01/01 11:45:22;;;;;;;5.55;1.30;;;;;;;15.10;35.73;101369.59;7393656;19;20384;-58